createdAt,value
2023-05-10T00:02:19.458Z,91.50
2023-05-10T00:04:46.653Z,91.40
2023-05-10T00:07:13.833Z,91.40
2023-05-10T00:09:41.013Z,91.40
2023-05-10T00:12:08.241Z,91.40
2023-05-10T00:14:35.606Z,91.30
2023-05-10T00:17:02.942Z,91.30
2023-05-10T00:19:30.161Z,91.30
2023-05-10T00:21:57.435Z,91.30
2023-05-10T00:24:24.680Z,91.30
2023-05-10T00:26:51.901Z,90.90
2023-05-10T00:29:20.507Z,91.30
2023-05-10T00:31:48.556Z,91.40
2023-05-10T00:34:15.801Z,91.50
2023-05-10T00:36:42.980Z,91.50
2023-05-10T00:39:10.299Z,91.50
2023-05-10T00:41:37.515Z,91.70
2023-05-10T00:44:06.754Z,91.70
2023-05-10T00:46:34.118Z,91.60
2023-05-10T00:49:01.454Z,91.60
2023-05-10T00:51:28.740Z,91.60
2023-05-10T00:53:56.936Z,91.60
2023-05-10T00:56:25.425Z,91.50
2023-05-10T00:58:54.128Z,91.50
2023-05-10T01:01:21.507Z,91.50
2023-05-10T01:03:49.316Z,91.50
2023-05-10T01:06:16.614Z,91.50
2023-05-10T01:08:43.879Z,91.60
2023-05-10T01:11:11.055Z,91.80
2023-05-10T01:13:40.262Z,92.00
2023-05-10T01:16:08.114Z,92.00
2023-05-10T01:18:41.523Z,92.40
2023-05-10T01:21:24.045Z,92.00
2023-05-10T01:24:22.320Z,91.90
2023-05-10T01:27:27.081Z,91.50
2023-05-10T01:30:16.342Z,91.80
2023-05-10T01:33:00.736Z,91.80
2023-05-10T01:35:35.936Z,92.10
2023-05-10T01:38:33.586Z,92.20
2023-05-10T01:41:20.742Z,91.80
2023-05-10T01:44:01.933Z,91.80
2023-05-10T01:46:37.975Z,91.80
2023-05-10T01:49:11.641Z,91.70
2023-05-10T01:51:47.987Z,91.60
2023-05-10T01:54:20.358Z,91.60
2023-05-10T01:56:53.576Z,91.20
2023-05-10T01:59:25.894Z,91.60
2023-05-10T02:01:55.223Z,91.60
2023-05-10T02:04:24.583Z,91.60
2023-05-10T02:06:54.013Z,91.60
2023-05-10T02:09:22.187Z,91.70
2023-05-10T02:11:51.098Z,91.60
2023-05-10T02:14:19.957Z,91.60
2023-05-10T02:16:48.254Z,91.20
2023-05-10T02:19:16.460Z,91.60
2023-05-10T02:21:45.446Z,91.50
2023-05-10T02:24:13.837Z,91.40
2023-05-10T02:26:42.704Z,91.40
2023-05-10T02:29:10.734Z,91.40
2023-05-10T02:31:39.753Z,91.50
2023-05-10T02:34:08.338Z,91.50
2023-05-10T02:36:36.491Z,91.50
2023-05-10T02:39:10.547Z,91.50
2023-05-10T02:41:38.891Z,91.50
2023-05-10T02:44:08.792Z,91.60
2023-05-10T02:46:37.779Z,91.20
2023-05-10T02:49:05.015Z,91.50
2023-05-10T02:51:35.812Z,91.60
2023-05-10T02:54:11.254Z,91.50
2023-05-10T02:56:43.457Z,91.50
2023-05-10T02:59:10.689Z,91.50
2023-05-10T03:01:37.970Z,91.60
2023-05-10T03:04:05.410Z,91.60
2023-05-10T03:06:32.724Z,91.60
2023-05-10T03:09:00.390Z,91.60
2023-05-10T03:11:39.734Z,91.70
2023-05-10T03:14:22.479Z,91.70
2023-05-10T03:17:01.039Z,91.60
2023-05-10T03:19:33.237Z,91.70
2023-05-10T03:22:05.243Z,91.60
2023-05-10T03:24:37.686Z,91.50
2023-05-10T03:27:05.586Z,91.50
2023-05-10T03:29:33.638Z,91.50
2023-05-10T03:32:01.291Z,91.50
2023-05-10T03:34:32.377Z,91.60
2023-05-10T03:36:59.786Z,91.60
2023-05-10T03:39:30.266Z,91.50
2023-05-10T03:41:59.765Z,91.60
2023-05-10T03:44:27.020Z,91.70
2023-05-10T03:46:54.597Z,91.70
2023-05-10T03:49:23.399Z,91.70
2023-05-10T03:51:50.834Z,91.50
2023-05-10T03:54:18.094Z,91.50
2023-05-10T03:56:45.329Z,91.60
2023-05-10T03:59:12.590Z,91.60
2023-05-10T04:01:39.847Z,91.70
2023-05-10T04:04:07.503Z,91.60
2023-05-10T04:06:34.837Z,91.50
2023-05-10T04:09:04.966Z,91.30
2023-05-10T04:11:32.221Z,91.40
2023-05-10T04:13:59.408Z,91.30
2023-05-10T04:16:26.650Z,91.40
2023-05-10T04:18:54.700Z,91.50
2023-05-10T04:21:21.948Z,91.60
2023-05-10T04:23:49.107Z,91.50
2023-05-10T04:26:16.331Z,91.40
2023-05-10T04:28:43.526Z,91.50
2023-05-10T04:31:11.397Z,91.40
2023-05-10T04:33:38.710Z,91.20
2023-05-10T04:36:06.414Z,91.30
2023-05-10T04:38:33.697Z,91.30
2023-05-10T04:41:08.649Z,91.30
2023-05-10T04:43:36.349Z,91.40
2023-05-10T04:46:04.187Z,91.40
2023-05-10T04:48:31.506Z,91.50
2023-05-10T04:50:58.761Z,91.40
2023-05-10T04:53:25.971Z,91.30
2023-05-10T04:55:55.679Z,91.20
2023-05-10T04:58:22.899Z,91.20
2023-05-10T05:00:50.126Z,91.40
2023-05-10T05:03:17.366Z,91.30
2023-05-10T05:05:45.810Z,91.40
2023-05-10T05:08:13.670Z,91.30
2023-05-10T05:10:40.894Z,91.00
2023-05-10T05:13:08.256Z,91.00
2023-05-10T05:15:35.567Z,91.00
2023-05-10T05:18:02.828Z,91.10
2023-05-10T05:20:35.914Z,90.90
2023-05-10T05:23:03.250Z,91.00
2023-05-10T05:25:30.589Z,91.00
2023-05-10T05:27:57.765Z,91.00
2023-05-10T05:30:25.133Z,91.00
2023-05-10T05:32:52.333Z,90.90
2023-05-10T05:35:19.713Z,90.90
2023-05-10T05:37:47.014Z,90.90
2023-05-10T05:40:15.036Z,90.70
2023-05-10T05:42:42.413Z,90.40
2023-05-10T05:45:13.825Z,90.60
2023-05-10T05:47:41.455Z,90.60
2023-05-10T05:50:09.232Z,90.70
2023-05-10T05:52:36.977Z,90.90
2023-05-10T05:55:04.629Z,90.80
2023-05-10T05:57:31.950Z,90.90
2023-05-10T05:59:59.205Z,90.90
2023-05-10T06:02:26.494Z,90.80
2023-05-10T06:04:53.770Z,91.10
2023-05-10T06:07:21.239Z,91.30
2023-05-10T06:09:48.459Z,91.20
2023-05-10T06:12:15.699Z,90.80
2023-05-10T06:14:42.924Z,90.20
2023-05-10T06:17:10.111Z,90.30
2023-05-10T06:19:37.763Z,90.10
2023-05-10T06:22:05.013Z,89.80
2023-05-10T06:24:32.214Z,89.60
2023-05-10T06:27:01.060Z,89.20
2023-05-10T06:29:28.292Z,89.30
2023-05-10T06:31:55.661Z,89.30
2023-05-10T06:34:23.050Z,89.20
2023-05-10T06:36:50.354Z,89.60
2023-05-10T06:39:17.586Z,89.70
2023-05-10T06:41:44.831Z,89.90
2023-05-10T06:44:12.282Z,90.00
2023-05-10T06:46:39.546Z,90.10
2023-05-10T06:49:06.820Z,90.20
2023-05-10T06:51:34.426Z,90.20
2023-05-10T06:54:02.209Z,90.00
2023-05-10T06:56:29.412Z,90.00
2023-05-10T06:58:56.818Z,90.00
2023-05-10T07:01:24.350Z,90.00
2023-05-10T07:03:51.656Z,90.40
2023-05-10T07:06:32.332Z,90.30
2023-05-10T07:09:01.303Z,90.10
2023-05-10T07:11:28.590Z,89.40
2023-05-10T07:13:55.771Z,88.70
2023-05-10T07:16:23.123Z,88.90
2023-05-10T07:18:51.623Z,89.30
2023-05-10T07:21:18.831Z,89.40
2023-05-10T07:23:46.087Z,88.80
2023-05-10T07:26:13.340Z,88.70
2023-05-10T07:28:40.630Z,88.20
2023-05-10T07:31:07.867Z,88.40
2023-05-10T07:33:35.140Z,88.10
2023-05-10T07:36:02.425Z,87.60
2023-05-10T07:38:29.712Z,86.50
2023-05-10T07:40:56.864Z,86.20
2023-05-10T07:43:24.104Z,86.00
2023-05-10T07:45:52.739Z,85.40
2023-05-10T07:48:21.155Z,84.80
2023-05-10T07:50:48.362Z,85.60
2023-05-10T07:53:15.500Z,85.80
2023-05-10T07:55:42.647Z,86.40
2023-05-10T07:58:09.788Z,86.80
2023-05-10T08:00:40.205Z,86.80
2023-05-10T08:03:07.471Z,86.30
2023-05-10T08:05:35.791Z,86.40
2023-05-10T08:08:03.187Z,87.40
2023-05-10T08:10:30.458Z,88.10
2023-05-10T08:12:59.265Z,87.50
2023-05-10T08:15:26.559Z,87.10
2023-05-10T08:17:53.792Z,86.50
2023-05-10T08:20:21.528Z,85.70
2023-05-10T08:22:51.183Z,84.80
2023-05-10T08:25:19.272Z,83.70
2023-05-10T08:27:49.474Z,81.30
2023-05-10T08:30:16.735Z,79.30
2023-05-10T08:32:44.013Z,77.70
2023-05-10T08:35:11.207Z,77.30
2023-05-10T08:37:38.425Z,78.40
2023-05-10T08:40:06.379Z,77.90
2023-05-10T08:42:37.125Z,79.00
2023-05-10T08:45:05.552Z,79.90
2023-05-10T08:47:33.004Z,80.40
2023-05-10T08:50:01.001Z,80.00
2023-05-10T08:52:30.985Z,79.50
2023-05-10T08:54:58.220Z,78.50
2023-05-10T08:57:25.827Z,79.20
2023-05-10T08:59:53.203Z,78.90
2023-05-10T09:02:22.053Z,78.60
2023-05-10T09:04:50.147Z,78.40
2023-05-10T09:07:18.013Z,79.60
2023-05-10T09:09:46.807Z,80.80
2023-05-10T09:12:16.546Z,81.30
2023-05-10T09:14:45.471Z,81.40
2023-05-10T09:17:13.096Z,81.70
2023-05-10T09:19:40.255Z,82.10
2023-05-10T09:22:07.774Z,82.00
2023-05-10T09:24:35.084Z,81.10
2023-05-10T09:27:02.767Z,78.80
2023-05-10T09:29:43.757Z,76.90
2023-05-10T09:32:10.957Z,74.50
2023-05-10T09:34:40.948Z,73.00
2023-05-10T09:37:09.102Z,72.20
2023-05-10T09:39:37.956Z,70.00
2023-05-10T09:42:07.387Z,67.80
2023-05-10T09:44:34.992Z,68.20
2023-05-10T09:47:03.259Z,69.70
2023-05-10T09:49:30.990Z,70.90
2023-05-10T09:52:06.589Z,72.50
2023-05-10T09:54:34.938Z,73.70
2023-05-10T09:57:02.660Z,74.20
2023-05-10T09:59:30.171Z,74.40
2023-05-10T10:02:01.582Z,74.50
2023-05-10T10:04:30.160Z,75.10
2023-05-10T10:07:05.189Z,75.90
2023-05-10T10:09:33.219Z,77.10
2023-05-10T10:12:01.737Z,77.40
2023-05-10T10:14:30.198Z,77.50
2023-05-10T10:17:07.625Z,78.50
2023-05-10T10:19:36.776Z,78.60
2023-05-10T10:22:04.463Z,78.20
2023-05-10T10:24:31.723Z,78.90
2023-05-10T10:27:10.205Z,78.90
2023-05-10T10:29:50.786Z,79.80
2023-05-10T10:32:21.780Z,79.40
2023-05-10T10:34:49.235Z,79.30
2023-05-10T10:37:16.625Z,77.90
2023-05-10T10:39:43.860Z,76.00
2023-05-10T10:42:11.137Z,75.30
2023-05-10T10:44:39.401Z,74.60
2023-05-10T10:47:13.029Z,74.50
2023-05-10T10:50:04.265Z,75.70
2023-05-10T10:52:45.025Z,75.10
2023-05-10T10:55:19.200Z,75.40
2023-05-10T10:57:52.651Z,75.90
2023-05-10T11:00:24.220Z,76.10
2023-05-10T11:03:15.338Z,77.20
2023-05-10T11:05:49.090Z,76.80
2023-05-10T11:08:29.644Z,76.70
2023-05-10T11:10:59.637Z,76.30
2023-05-10T11:13:35.487Z,76.30
2023-05-10T11:16:16.459Z,76.20
2023-05-10T11:19:06.116Z,76.20
2023-05-10T11:21:34.814Z,76.20
2023-05-10T11:24:06.905Z,77.10
2023-05-10T11:26:38.142Z,77.00
2023-05-10T11:29:05.948Z,77.40
2023-05-10T11:31:36.404Z,77.20
2023-05-10T11:34:05.997Z,77.70
2023-05-10T11:36:37.472Z,77.60
2023-05-10T11:39:05.852Z,77.40
2023-05-10T11:41:33.112Z,78.10
2023-05-10T11:44:00.769Z,78.00
2023-05-10T11:46:29.411Z,77.20
2023-05-10T11:49:07.960Z,76.70
2023-05-10T11:51:40.363Z,76.80
2023-05-10T11:54:10.277Z,76.70
2023-05-10T11:56:39.229Z,76.10
2023-05-10T11:59:06.697Z,76.10
2023-05-10T12:01:34.673Z,75.90
2023-05-10T12:04:02.369Z,76.50
2023-05-10T12:06:34.850Z,76.90
2023-05-10T12:09:07.673Z,76.10
2023-05-10T12:11:43.560Z,76.30
2023-05-10T12:14:12.197Z,76.60
2023-05-10T12:16:39.454Z,75.30
2023-05-10T12:19:06.836Z,76.00
2023-05-10T12:21:34.346Z,77.00
2023-05-10T12:24:04.396Z,77.70
2023-05-10T12:26:32.048Z,78.50
2023-05-10T12:29:19.486Z,78.50
2023-05-10T12:32:00.972Z,78.80
2023-05-10T12:34:32.162Z,79.50
2023-05-10T12:36:59.870Z,79.70
2023-05-10T12:39:27.077Z,79.10
2023-05-10T12:41:54.238Z,78.90
2023-05-10T12:44:21.546Z,77.60
2023-05-10T12:46:48.815Z,75.50
2023-05-10T12:49:16.007Z,76.30
2023-05-10T12:51:43.189Z,74.10
2023-05-10T12:54:10.696Z,70.40
2023-05-10T12:56:38.043Z,68.00
2023-05-10T12:59:05.577Z,68.20
2023-05-10T13:01:32.804Z,67.80
2023-05-10T13:04:01.086Z,66.70
2023-05-10T13:06:29.427Z,66.20
2023-05-10T13:08:58.454Z,66.70
2023-05-10T13:11:28.780Z,67.50
2023-05-10T13:13:56.534Z,65.70
2023-05-10T13:16:23.874Z,66.30
2023-05-10T13:18:51.554Z,63.60
2023-05-10T13:21:19.017Z,62.50
2023-05-10T13:23:47.428Z,59.30
2023-05-10T13:26:14.720Z,60.50
2023-05-10T13:28:41.892Z,60.40
2023-05-10T13:31:09.206Z,57.70
2023-05-10T13:33:36.394Z,53.50
2023-05-10T13:36:03.824Z,50.30
2023-05-10T13:38:30.984Z,50.00
2023-05-10T13:40:58.139Z,52.40
2023-05-10T13:43:25.329Z,54.40
2023-05-10T13:45:53.145Z,56.40
2023-05-10T13:48:20.334Z,60.60
2023-05-10T13:50:47.930Z,61.00
2023-05-10T13:53:15.452Z,62.40
2023-05-10T13:55:42.876Z,63.40
2023-05-10T13:58:10.066Z,65.10
2023-05-10T14:00:37.471Z,66.70
2023-05-10T14:03:06.248Z,66.30
2023-05-10T14:05:33.623Z,68.00
2023-05-10T14:08:00.765Z,68.40
2023-05-10T14:10:27.932Z,69.90
2023-05-10T14:12:55.218Z,69.90
2023-05-10T14:15:22.448Z,69.80
2023-05-10T14:17:49.678Z,70.50
2023-05-10T14:20:16.970Z,71.20
2023-05-10T14:22:44.128Z,70.20
2023-05-10T14:25:12.397Z,71.00
2023-05-10T14:27:39.575Z,69.70
2023-05-10T14:30:07.671Z,69.30
2023-05-10T14:32:35.141Z,70.50
2023-05-10T14:35:02.498Z,69.30
2023-05-10T14:37:29.690Z,67.80
2023-05-10T14:39:56.850Z,67.50
2023-05-10T14:42:24.037Z,66.60
2023-05-10T14:44:51.394Z,66.20
2023-05-10T14:47:18.619Z,66.00
2023-05-10T14:49:45.788Z,63.90
2023-05-10T14:52:13.202Z,65.00
2023-05-10T14:54:41.202Z,65.10
2023-05-10T14:57:08.392Z,66.20
2023-05-10T14:59:35.764Z,64.60
2023-05-10T15:02:05.134Z,65.60
2023-05-10T15:04:33.134Z,65.10
2023-05-10T15:07:01.381Z,66.30
2023-05-10T15:09:28.664Z,68.10
2023-05-10T15:11:56.525Z,67.70
2023-05-10T15:14:24.313Z,67.60
2023-05-10T15:16:51.547Z,67.50
2023-05-10T15:19:18.733Z,67.90
2023-05-10T15:21:46.264Z,67.20
2023-05-10T15:24:13.486Z,67.10
2023-05-10T15:26:41.362Z,64.00
2023-05-10T15:29:08.753Z,58.60
2023-05-10T15:31:36.770Z,56.40
2023-05-10T15:34:04.054Z,56.20
2023-05-10T15:36:33.023Z,55.40
2023-05-10T15:39:00.174Z,51.50
2023-05-10T15:41:27.727Z,51.30
2023-05-10T15:43:55.020Z,50.80
2023-05-10T15:46:22.668Z,51.10
2023-05-10T15:48:49.950Z,52.40
2023-05-10T15:51:17.311Z,56.20
2023-05-10T15:53:56.545Z,60.00
2023-05-10T15:56:28.385Z,62.10
2023-05-10T15:58:55.748Z,63.60
2023-05-10T16:01:23.050Z,63.60
2023-05-10T16:03:50.372Z,64.80
2023-05-10T16:06:17.607Z,65.10
2023-05-10T16:08:44.815Z,65.10
2023-05-10T16:11:12.131Z,66.10
2023-05-10T16:13:39.349Z,65.90
2023-05-10T16:16:08.894Z,66.30
2023-05-10T16:18:36.482Z,65.70
2023-05-10T16:21:04.000Z,66.70
2023-05-10T16:23:31.195Z,66.00
2023-05-10T16:25:58.408Z,66.80
2023-05-10T16:28:25.789Z,66.70
2023-05-10T16:30:53.077Z,68.00
2023-05-10T16:33:20.763Z,67.60
2023-05-10T16:35:47.960Z,66.60
2023-05-10T16:38:15.207Z,67.30
2023-05-10T16:40:42.463Z,67.90
2023-05-10T16:43:09.688Z,67.20
2023-05-10T16:45:36.852Z,66.80
2023-05-10T16:48:04.143Z,67.00
2023-05-10T16:50:31.349Z,66.90
2023-05-10T16:52:58.692Z,67.80
2023-05-10T16:55:26.558Z,68.10
2023-05-10T16:57:59.641Z,68.20
2023-05-10T17:00:27.300Z,68.20
2023-05-10T17:02:54.934Z,68.60
2023-05-10T17:05:22.875Z,68.60
2023-05-10T17:07:50.519Z,67.70
2023-05-10T17:10:17.953Z,68.60
2023-05-10T17:12:45.756Z,70.30
2023-05-10T17:15:13.259Z,69.80
2023-05-10T17:17:40.575Z,70.20
2023-05-10T17:20:08.545Z,70.60
2023-05-10T17:22:35.896Z,71.30
2023-05-10T17:25:04.175Z,70.20
2023-05-10T17:27:31.640Z,71.20
2023-05-10T17:29:59.426Z,71.70
2023-05-10T17:32:26.725Z,71.80
2023-05-10T17:34:53.929Z,71.80
2023-05-10T17:37:21.142Z,71.90
2023-05-10T17:39:48.338Z,72.80
2023-05-10T17:42:17.539Z,73.50
2023-05-10T17:44:44.741Z,73.80
2023-05-10T17:47:12.006Z,73.80
2023-05-10T17:49:39.883Z,74.70
2023-05-10T17:52:09.377Z,75.40
2023-05-10T17:54:36.611Z,76.00
2023-05-10T17:57:03.950Z,75.90
2023-05-10T17:59:31.094Z,75.60
2023-05-10T18:01:58.286Z,76.20
2023-05-10T18:04:27.961Z,76.50
2023-05-10T18:07:01.134Z,76.80
2023-05-10T18:09:29.116Z,77.50
2023-05-10T18:11:56.514Z,77.40
2023-05-10T18:14:36.469Z,77.60
2023-05-10T18:17:06.908Z,77.90
2023-05-10T18:19:34.288Z,77.70
2023-05-10T18:22:01.558Z,78.40
2023-05-10T18:24:38.236Z,78.30
2023-05-10T18:27:07.903Z,78.30
2023-05-10T18:29:36.098Z,78.80
2023-05-10T18:32:04.602Z,78.40
2023-05-10T18:34:34.906Z,78.60
2023-05-10T18:37:07.093Z,79.00
2023-05-10T18:39:34.332Z,79.20
2023-05-10T18:42:01.803Z,78.80
2023-05-10T18:44:29.193Z,78.60
2023-05-10T18:46:56.679Z,78.50
2023-05-10T18:49:24.058Z,78.90
2023-05-10T18:51:51.350Z,79.10
2023-05-10T18:54:18.643Z,79.40
2023-05-10T18:56:46.311Z,79.20
2023-05-10T18:59:13.887Z,79.80
2023-05-10T19:01:41.715Z,79.90
2023-05-10T19:04:09.027Z,79.80
2023-05-10T19:06:36.530Z,80.00
2023-05-10T19:09:03.898Z,80.10
2023-05-10T19:11:33.927Z,80.10
2023-05-10T19:14:02.066Z,80.30
2023-05-10T19:16:30.573Z,80.60
2023-05-10T19:18:58.078Z,80.40
2023-05-10T19:21:25.410Z,80.40
2023-05-10T19:23:53.590Z,80.80
2023-05-10T19:26:21.740Z,81.10
2023-05-10T19:28:51.898Z,81.20
2023-05-10T19:31:19.898Z,80.90
2023-05-10T19:33:47.254Z,81.20
2023-05-10T19:36:14.504Z,81.00
2023-05-10T19:38:41.884Z,81.10
2023-05-10T19:41:09.134Z,81.30
2023-05-10T19:43:39.663Z,81.40
2023-05-10T19:46:06.910Z,81.30
2023-05-10T19:48:34.128Z,81.50
2023-05-10T19:51:03.027Z,81.70
2023-05-10T19:53:30.642Z,81.90
2023-05-10T19:56:03.846Z,81.80
2023-05-10T19:58:31.377Z,81.90
2023-05-10T20:00:58.645Z,82.00
2023-05-10T20:03:25.948Z,81.90
2023-05-10T20:05:53.351Z,81.70
2023-05-10T20:08:20.634Z,82.00
2023-05-10T20:10:47.947Z,82.00
2023-05-10T20:13:15.180Z,82.00
2023-05-10T20:15:42.365Z,82.20
2023-05-10T20:18:09.785Z,82.30
2023-05-10T20:20:37.081Z,82.20
2023-05-10T20:23:04.293Z,82.50
2023-05-10T20:25:31.674Z,82.40
2023-05-10T20:27:58.873Z,82.50
2023-05-10T20:30:26.284Z,82.50
2023-05-10T20:32:53.583Z,82.70
2023-05-10T20:35:20.936Z,82.80
2023-05-10T20:37:48.421Z,82.70
2023-05-10T20:40:15.808Z,82.60
2023-05-10T20:42:43.162Z,82.70
2023-05-10T20:45:10.894Z,83.00
2023-05-10T20:47:38.193Z,83.10
2023-05-10T20:50:05.981Z,83.30
2023-05-10T20:52:33.168Z,83.30
2023-05-10T20:55:00.334Z,83.40
2023-05-10T20:57:27.539Z,83.40
2023-05-10T20:59:54.763Z,83.30
2023-05-10T21:02:21.992Z,83.30
2023-05-10T21:04:49.199Z,83.30
2023-05-10T21:07:16.713Z,83.20
2023-05-10T21:09:43.875Z,83.20
2023-05-10T21:12:11.283Z,83.20
2023-05-10T21:14:38.476Z,83.40
2023-05-10T21:17:05.686Z,83.40
2023-05-10T21:19:32.893Z,83.70
2023-05-10T21:22:00.098Z,83.80
2023-05-10T21:24:27.323Z,83.80
2023-05-10T21:26:54.549Z,83.30
2023-05-10T21:29:21.811Z,84.00
2023-05-10T21:31:49.061Z,84.10
2023-05-10T21:34:17.873Z,84.20
2023-05-10T21:36:45.115Z,84.30
2023-05-10T21:39:12.353Z,84.30
2023-05-10T21:41:39.529Z,84.40
2023-05-10T21:44:06.757Z,84.40
2023-05-10T21:46:33.913Z,84.50
2023-05-10T21:49:01.081Z,84.50
2023-05-10T21:51:29.171Z,84.50
2023-05-10T21:53:56.516Z,84.50
2023-05-10T21:56:23.734Z,84.60
2023-05-10T21:58:50.948Z,84.80
2023-05-10T22:01:18.329Z,84.80
2023-05-10T22:03:45.695Z,84.80
2023-05-10T22:06:12.965Z,84.80
2023-05-10T22:08:40.274Z,85.00
2023-05-10T22:11:07.470Z,84.90
2023-05-10T22:13:34.665Z,84.90
2023-05-10T22:16:01.984Z,84.90
2023-05-10T22:18:29.495Z,84.80
2023-05-10T22:20:56.733Z,84.70
2023-05-10T22:23:23.921Z,84.80
2023-05-10T22:25:51.156Z,84.90
2023-05-10T22:28:18.376Z,85.00
2023-05-10T22:30:45.722Z,85.00
2023-05-10T22:33:12.988Z,84.90
2023-05-10T22:35:40.279Z,85.10
2023-05-10T22:38:07.515Z,85.10
2023-05-10T22:40:34.704Z,85.10
2023-05-10T22:43:01.988Z,85.20
2023-05-10T22:45:29.211Z,85.20
2023-05-10T22:47:56.613Z,85.20
2023-05-10T22:50:24.654Z,85.20
2023-05-10T22:52:51.929Z,85.20
2023-05-10T22:55:19.345Z,85.20
2023-05-10T22:57:46.615Z,85.20
2023-05-10T23:00:14.579Z,85.20
2023-05-10T23:02:41.940Z,85.10
2023-05-10T23:05:09.837Z,85.20
2023-05-10T23:07:37.179Z,85.20
2023-05-10T23:10:04.740Z,85.30
2023-05-10T23:12:32.110Z,85.40
2023-05-10T23:14:59.632Z,85.40
2023-05-10T23:17:26.985Z,85.50
2023-05-10T23:19:54.249Z,85.60
2023-05-10T23:22:21.841Z,86.50
2023-05-10T23:24:49.135Z,85.60
2023-05-10T23:27:16.549Z,85.60
2023-05-10T23:29:43.805Z,85.50
2023-05-10T23:32:11.483Z,85.50
2023-05-10T23:34:38.744Z,85.60
2023-05-10T23:37:06.188Z,85.50
2023-05-10T23:39:33.937Z,85.60
2023-05-10T23:42:01.473Z,85.60
2023-05-10T23:44:28.695Z,85.60
2023-05-10T23:46:56.073Z,85.60
2023-05-10T23:49:23.322Z,85.20
2023-05-10T23:51:50.688Z,85.10
2023-05-10T23:54:18.117Z,85.20
2023-05-10T23:56:45.390Z,84.80
2023-05-10T23:59:14.721Z,85.60
